Time,TemperatureF,DewpointF,PressureIn,WindDirection,WindDirectionDegrees,WindSpeedMPH,WindSpeedGustMPH,Humidity,HourlyPrecipIn,Conditions,Clouds,dailyrainin,SoftwareType,DateUTC
2013-03-25 00:02:00,22.0,8.0,-100.00,SSW,195,1.0,1.0,55,-99.99,,,0.00,,2013-03-25 06:02:00,
2013-03-25 00:12:00,21.0,9.0,-100.00,South,185,1.0,3.0,59,-99.99,,,0.00,,2013-03-25 06:12:00,
2013-03-25 00:22:00,21.0,9.0,-100.00,South,185,1.0,3.0,59,-99.99,,,0.00,,2013-03-25 06:22:00,
2013-03-25 00:32:00,20.0,9.0,-100.00,North,-999,0.0,0.0,62,-99.99,,,0.00,,2013-03-25 06:32:00,
2013-03-25 00:42:00,20.0,9.0,-100.00,North,-999,0.0,0.0,62,-99.99,,,0.00,,2013-03-25 06:42:00,
2013-03-25 00:52:00,20.0,10.0,-100.00,North,-999,0.0,0.0,66,-99.99,,,0.00,,2013-03-25 06:52:00,
2013-03-25 01:02:00,20.0,10.0,-100.00,North,-999,0.0,0.0,66,-99.99,,,0.00,,2013-03-25 07:02:00,
2013-03-25 01:12:00,18.0,10.0,-100.00,North,-999,0.0,0.0,70,-99.99,,,0.00,,2013-03-25 07:12:00,
2013-03-25 01:22:00,18.0,10.0,-100.00,North,-999,0.0,0.0,70,-99.99,,,0.00,,2013-03-25 07:22:00,
2013-03-25 01:31:00,19.0,11.0,-100.00,North,-999,0.0,0.0,72,-99.99,,,0.00,,2013-03-25 07:31:00,
2013-03-25 01:42:00,19.0,11.0,-100.00,North,-999,0.0,0.0,72,-99.99,,,0.00,,2013-03-25 07:42:00,
2013-03-25 01:52:00,18.0,11.0,-100.00,North,-999,0.0,0.0,72,-99.99,,,0.00,,2013-03-25 07:52:00,
2013-03-25 02:02:00,18.0,11.0,-100.00,North,-999,0.0,0.0,72,-99.99,,,0.00,,2013-03-25 08:02:00,
2013-03-25 02:12:00,17.0,11.0,-100.00,North,-999,0.0,0.0,75,-99.99,,,0.00,,2013-03-25 08:12:00,
2013-03-25 02:22:00,17.0,11.0,-100.00,North,-999,0.0,0.0,75,-99.99,,,0.00,,2013-03-25 08:22:00,
2013-03-25 02:32:00,18.0,11.0,-100.00,North,-999,0.0,0.0,76,-99.99,,,0.00,,2013-03-25 08:32:00,
2013-03-25 02:42:00,18.0,11.0,-100.00,North,-999,0.0,0.0,76,-99.99,,,0.00,,2013-03-25 08:42:00,
2013-03-25 02:52:00,17.0,11.0,-100.00,North,-999,0.0,0.0,76,-99.99,,,0.00,,2013-03-25 08:52:00,
2013-03-25 03:02:00,17.0,11.0,-100.00,North,-999,0.0,0.0,76,-99.99,,,0.00,,2013-03-25 09:02:00,
2013-03-25 03:12:00,16.0,11.0,-100.00,SSW,195,0.0,1.0,80,-99.99,,,0.00,,2013-03-25 09:12:00,
2013-03-25 03:22:00,16.0,11.0,-100.00,SSW,195,0.0,1.0,80,-99.99,,,0.00,,2013-03-25 09:22:00,
2013-03-25 03:32:00,16.0,11.0,-100.00,SSW,200,1.0,4.0,81,-99.99,,,0.00,,2013-03-25 09:32:00,
2013-03-25 03:42:00,16.0,11.0,-100.00,SSW,200,1.0,4.0,81,-99.99,,,0.00,,2013-03-25 09:42:00,
2013-03-25 03:52:00,15.0,11.0,-100.00,North,-999,0.0,0.0,82,-99.99,,,0.00,,2013-03-25 09:52:00,
2013-03-25 04:02:00,15.0,11.0,-100.00,North,-999,0.0,0.0,82,-99.99,,,0.00,,2013-03-25 10:02:00,
2013-03-25 04:12:00,15.0,10.0,-100.00,SSW,210,0.0,1.0,83,-99.99,,,0.00,,2013-03-25 10:12:00,
2013-03-25 04:22:00,15.0,10.0,-100.00,SSW,210,0.0,1.0,83,-99.99,,,0.00,,2013-03-25 10:22:00,
2013-03-25 04:32:00,14.0,10.0,-100.00,North,-999,0.0,0.0,84,-99.99,,,0.00,,2013-03-25 10:32:00,
2013-03-25 04:42:00,14.0,10.0,-100.00,North,-999,0.0,0.0,84,-99.99,,,0.00,,2013-03-25 10:42:00,
2013-03-25 04:53:00,14.0,10.0,-100.00,North,-999,0.0,0.0,85,-99.99,,,0.00,,2013-03-25 10:53:00,
2013-03-25 05:02:00,14.0,10.0,-100.00,North,-999,0.0,0.0,85,-99.99,,,0.00,,2013-03-25 11:02:00,
2013-03-25 05:12:00,14.0,11.0,-100.00,North,-999,0.0,0.0,87,-99.99,,,0.00,,2013-03-25 11:12:00,
2013-03-25 05:23:00,14.0,11.0,-100.00,North,-999,0.0,0.0,87,-99.99,,,0.00,,2013-03-25 11:23:00,
2013-03-25 05:32:00,13.0,11.0,-100.00,North,-999,0.0,0.0,88,-99.99,,,0.00,,2013-03-25 11:32:00,
2013-03-25 05:42:00,13.0,11.0,-100.00,North,-999,0.0,0.0,88,-99.99,,,0.00,,2013-03-25 11:42:00,
2013-03-25 05:52:00,14.0,11.0,-100.00,North,-999,0.0,0.0,88,-99.99,,,0.00,,2013-03-25 11:52:00,
2013-03-25 06:02:00,14.0,11.0,-100.00,North,-999,0.0,0.0,88,-99.99,,,0.00,,2013-03-25 12:02:00,
2013-03-25 06:12:00,13.0,10.0,-100.00,SSW,205,1.0,2.0,90,-99.99,,,0.00,,2013-03-25 12:12:00,
2013-03-25 06:23:00,13.0,10.0,-100.00,SSW,205,1.0,2.0,90,-99.99,,,0.00,,2013-03-25 12:23:00,
2013-03-25 06:32:00,13.0,11.0,-100.00,North,-999,0.0,0.0,92,-99.99,,,0.00,,2013-03-25 12:32:00,
2013-03-25 06:42:00,13.0,11.0,-100.00,North,-999,0.0,0.0,92,-99.99,,,0.00,,2013-03-25 12:42:00,
2013-03-25 06:52:00,12.0,10.0,-100.00,North,-999,0.0,0.0,92,-99.99,,,0.00,,2013-03-25 12:52:00,
2013-03-25 07:02:00,12.0,10.0,-100.00,North,-999,0.0,0.0,92,-99.99,,,0.00,,2013-03-25 13:02:00,
2013-03-25 07:12:00,12.0,10.0,-100.00,SSW,195,1.0,3.0,92,-99.99,,,0.00,,2013-03-25 13:12:00,
2013-03-25 07:22:00,12.0,10.0,-100.00,SSW,195,1.0,3.0,92,-99.99,,,0.00,,2013-03-25 13:22:00,
2013-03-25 07:32:00,13.0,11.0,-100.00,North,-999,0.0,0.0,92,-99.99,,,0.00,,2013-03-25 13:32:00,
2013-03-25 07:42:00,13.0,11.0,-100.00,North,-999,0.0,0.0,92,-99.99,,,0.00,,2013-03-25 13:42:00,
2013-03-25 07:52:00,15.0,12.0,-100.00,SW,225,0.0,4.0,88,-99.99,,,0.00,,2013-03-25 13:52:00,
2013-03-25 08:02:00,15.0,12.0,-100.00,SW,225,0.0,4.0,88,-99.99,,,0.00,,2013-03-25 14:02:00,
2013-03-25 08:12:00,17.0,12.0,-100.00,East,95,0.0,3.0,81,-99.99,,,0.00,,2013-03-25 14:12:00,
2013-03-25 08:22:00,17.0,12.0,-100.00,East,95,0.0,3.0,81,-99.99,,,0.00,,2013-03-25 14:22:00,
2013-03-25 08:32:00,18.0,12.0,-100.00,South,170,3.0,8.0,78,-99.99,,,0.00,,2013-03-25 14:32:00,
2013-03-25 08:42:00,18.0,12.0,-100.00,South,170,3.0,8.0,78,-99.99,,,0.00,,2013-03-25 14:42:00,
2013-03-25 08:52:00,18.0,13.0,-100.00,SSE,155,4.0,7.0,78,-99.99,,,0.00,,2013-03-25 14:52:00,
2013-03-25 09:02:00,18.0,13.0,-100.00,SSE,155,4.0,7.0,78,-99.99,,,0.00,,2013-03-25 15:02:00,
2013-03-25 09:12:00,22.0,14.0,-100.00,SSW,205,1.0,4.0,71,-99.99,,,0.00,,2013-03-25 15:12:00,
2013-03-25 09:22:00,22.0,14.0,-100.00,SSW,205,1.0,4.0,71,-99.99,,,0.00,,2013-03-25 15:22:00,
2013-03-25 09:32:00,24.0,14.0,-100.00,South,180,1.0,5.0,66,-99.99,,,0.00,,2013-03-25 15:32:00,
2013-03-25 09:42:00,24.0,14.0,-100.00,South,180,1.0,5.0,66,-99.99,,,0.00,,2013-03-25 15:42:00,
2013-03-25 09:52:00,26.0,14.0,-100.00,SSE,155,1.0,4.0,61,-99.99,,,0.00,,2013-03-25 15:52:00,
2013-03-25 10:03:00,26.0,14.0,-100.00,SSE,155,1.0,4.0,61,-99.99,,,0.00,,2013-03-25 16:03:00,
2013-03-25 10:12:00,26.0,14.0,-100.00,SSE,155,1.0,4.0,61,-99.99,,,0.00,,2013-03-25 16:12:00,
2013-03-25 10:32:00,32.0,14.0,-100.00,South,190,11.0,13.0,48,-99.99,,,0.00,,2013-03-25 16:32:00,
2013-03-25 10:42:00,32.0,14.0,-100.00,South,190,11.0,13.0,48,-99.99,,,0.00,,2013-03-25 16:42:00,
2013-03-25 10:52:00,33.0,14.0,-100.00,South,190,15.0,17.0,44,-99.99,,,0.00,,2013-03-25 16:52:00,
2013-03-25 11:02:00,33.0,14.0,-100.00,South,190,15.0,17.0,44,-99.99,,,0.00,,2013-03-25 17:02:00,
2013-03-25 11:12:00,34.0,13.0,-100.00,SSW,200,16.0,20.0,40,-99.99,,,0.00,,2013-03-25 17:12:00,
2013-03-25 11:23:00,34.0,13.0,-100.00,SSW,200,16.0,20.0,40,-99.99,,,0.00,,2013-03-25 17:23:00,
2013-03-25 11:32:00,35.0,12.0,-100.00,SSW,205,15.0,22.0,39,-99.99,,,0.00,,2013-03-25 17:32:00,
2013-03-25 11:42:00,35.0,12.0,-100.00,SSW,205,15.0,22.0,39,-99.99,,,0.00,,2013-03-25 17:42:00,
2013-03-25 11:52:00,36.0,13.0,-100.00,SSW,195,12.0,15.0,39,-99.99,,,0.00,,2013-03-25 17:52:00,
2013-03-25 12:03:00,36.0,13.0,-100.00,SSW,195,12.0,15.0,39,-99.99,,,0.00,,2013-03-25 18:03:00,
2013-03-25 12:12:00,37.0,14.0,-100.00,South,190,11.0,14.0,37,-99.99,,,0.00,,2013-03-25 18:12:00,
2013-03-25 12:22:00,37.0,14.0,-100.00,South,190,11.0,14.0,37,-99.99,,,0.00,,2013-03-25 18:22:00,
2013-03-25 12:32:00,38.0,14.0,-100.00,SW,225,6.0,9.0,37,-99.99,,,0.00,,2013-03-25 18:32:00,
2013-03-25 12:42:00,38.0,14.0,-100.00,SW,225,6.0,9.0,37,-99.99,,,0.00,,2013-03-25 18:42:00,
2013-03-25 12:52:00,38.0,14.0,-100.00,SSW,205,14.0,18.0,36,-99.99,,,0.00,,2013-03-25 18:52:00,
2013-03-25 13:02:00,38.0,14.0,-100.00,SSW,205,14.0,18.0,36,-99.99,,,0.00,,2013-03-25 19:02:00,
2013-03-25 13:12:00,39.0,14.0,-100.00,SSW,200,18.0,20.0,36,-99.99,,,0.00,,2013-03-25 19:12:00,
2013-03-25 13:22:00,39.0,14.0,-100.00,SSW,200,18.0,20.0,36,-99.99,,,0.00,,2013-03-25 19:22:00,
2013-03-25 13:32:00,39.0,14.0,-100.00,SSW,200,18.0,20.0,36,-99.99,,,0.00,,2013-03-25 19:32:00,
2013-03-25 13:42:00,39.0,14.0,-100.00,SSW,200,18.0,20.0,36,-99.99,,,0.00,,2013-03-25 19:42:00,
2013-03-25 13:52:00,40.0,15.0,-100.00,SSW,195,12.0,14.0,35,-99.99,,,0.00,,2013-03-25 19:52:00,
2013-03-25 14:02:00,40.0,15.0,-100.00,SSW,195,12.0,14.0,35,-99.99,,,0.00,,2013-03-25 20:02:00,
2013-03-25 14:12:00,41.0,15.0,-100.00,South,190,11.0,14.0,35,-99.99,,,0.00,,2013-03-25 20:12:00,
2013-03-25 14:22:00,41.0,15.0,-100.00,South,190,11.0,14.0,35,-99.99,,,0.00,,2013-03-25 20:22:00,
2013-03-25 14:32:00,41.0,15.0,-100.00,South,185,13.0,15.0,35,-99.99,,,0.00,,2013-03-25 20:32:00,
2013-03-25 14:42:00,41.0,15.0,-100.00,South,185,13.0,15.0,35,-99.99,,,0.00,,2013-03-25 20:42:00,
2013-03-25 14:52:00,43.0,16.0,-100.00,SSW,195,9.0,14.0,34,-99.99,,,-99.99,,2013-03-25 20:52:00,
2013-03-25 15:02:00,43.0,16.0,-100.00,SSW,195,9.0,14.0,34,-99.99,,,-99.99,,2013-03-25 21:02:00,
2013-03-25 15:12:00,44.0,17.0,-100.00,SSW,205,11.0,13.0,34,-99.99,,,0.00,,2013-03-25 21:12:00,
2013-03-25 15:22:00,44.0,17.0,-100.00,SSW,205,11.0,13.0,34,-99.99,,,0.00,,2013-03-25 21:22:00,
2013-03-25 15:32:00,44.0,17.0,-100.00,WSW,255,4.0,9.0,33,-99.99,,,0.00,,2013-03-25 21:32:00,
2013-03-25 15:42:00,44.0,17.0,-100.00,WSW,255,4.0,9.0,33,-99.99,,,0.00,,2013-03-25 21:42:00,
2013-03-25 15:52:00,45.0,17.0,-100.00,SSW,200,14.0,16.0,32,-99.99,,,0.00,,2013-03-25 21:52:00,
2013-03-25 16:03:00,45.0,17.0,-100.00,SSW,200,14.0,16.0,32,-99.99,,,0.00,,2013-03-25 22:03:00,
2013-03-25 16:12:00,45.0,16.0,-100.00,South,185,10.0,12.0,30,-99.99,,,0.00,,2013-03-25 22:12:00,
2013-03-25 16:23:00,45.0,16.0,-100.00,South,185,10.0,12.0,30,-99.99,,,0.00,,2013-03-25 22:23:00,
2013-03-25 16:32:00,46.0,16.0,-100.00,SSW,210,5.0,8.0,30,-99.99,,,0.00,,2013-03-25 22:32:00,
2013-03-25 16:42:00,46.0,16.0,-100.00,SSW,210,5.0,8.0,30,-99.99,,,0.00,,2013-03-25 22:42:00,
2013-03-25 16:52:00,47.0,16.0,-100.00,SSW,195,13.0,18.0,29,-99.99,,,0.00,,2013-03-25 22:52:00,
2013-03-25 17:02:00,47.0,16.0,-100.00,SSW,195,13.0,18.0,29,-99.99,,,0.00,,2013-03-25 23:02:00,
2013-03-25 17:12:00,46.0,15.0,-100.00,South,185,11.0,12.0,28,-99.99,,,0.00,,2013-03-25 23:12:00,
2013-03-25 17:22:00,46.0,15.0,-100.00,South,185,11.0,12.0,28,-99.99,,,0.00,,2013-03-25 23:22:00,
2013-03-25 17:32:00,47.0,16.0,-100.00,SSW,200,9.0,12.0,28,-99.99,,,0.00,,2013-03-25 23:32:00,
2013-03-25 17:42:00,47.0,16.0,-100.00,SSW,200,9.0,12.0,28,-99.99,,,0.00,,2013-03-25 23:42:00,
2013-03-25 17:52:00,47.0,15.0,-100.00,South,180,15.0,20.0,28,-99.99,,,0.00,,2013-03-25 23:52:00,
2013-03-25 18:02:00,47.0,15.0,-100.00,South,180,15.0,20.0,28,-99.99,,,0.00,,2013-03-26 00:02:00,
2013-03-25 18:12:00,46.0,15.0,-100.00,SSW,200,11.0,13.0,28,-99.99,,,0.00,,2013-03-26 00:12:00,
2013-03-25 18:22:00,46.0,15.0,-100.00,SSW,200,11.0,13.0,28,-99.99,,,0.00,,2013-03-26 00:22:00,
2013-03-25 18:32:00,46.0,15.0,-100.00,SSW,200,11.0,13.0,28,-99.99,,,0.00,,2013-03-26 00:32:00,
2013-03-25 18:52:00,47.0,15.0,-100.00,SW,215,6.0,8.0,28,-99.99,,,0.00,,2013-03-26 00:52:00,
2013-03-25 19:02:00,47.0,15.0,-100.00,SW,215,6.0,8.0,28,-99.99,,,0.00,,2013-03-26 01:02:00,
2013-03-25 19:12:00,46.0,16.0,-100.00,South,185,4.0,8.0,29,-99.99,,,0.00,,2013-03-26 01:12:00,
2013-03-25 19:22:00,46.0,16.0,-100.00,South,185,4.0,8.0,29,-99.99,,,0.00,,2013-03-26 01:22:00,
2013-03-25 19:32:00,46.0,15.0,-100.00,South,185,9.0,11.0,29,-99.99,,,0.00,,2013-03-26 01:32:00,
2013-03-25 19:42:00,46.0,15.0,-100.00,South,185,9.0,11.0,29,-99.99,,,0.00,,2013-03-26 01:42:00,
2013-03-25 19:52:00,45.0,14.0,-100.00,South,190,6.0,8.0,29,-99.99,,,0.00,,2013-03-26 01:52:00,
2013-03-25 20:02:00,45.0,14.0,-100.00,South,190,6.0,8.0,29,-99.99,,,0.00,,2013-03-26 02:02:00,
2013-03-25 20:12:00,41.0,12.0,-100.00,North,-999,0.0,0.0,31,-99.99,,,0.00,,2013-03-26 02:12:00,
2013-03-25 20:22:00,41.0,12.0,-100.00,North,-999,0.0,0.0,31,-99.99,,,0.00,,2013-03-26 02:22:00,
2013-03-25 20:32:00,38.0,12.0,-100.00,North,-999,0.0,0.0,34,-99.99,,,0.00,,2013-03-26 02:32:00,
2013-03-25 20:42:00,38.0,12.0,-100.00,North,-999,0.0,0.0,34,-99.99,,,0.00,,2013-03-26 02:42:00,
2013-03-25 20:52:00,38.0,12.0,-100.00,ENE,70,0.0,2.0,34,-99.99,,,0.00,,2013-03-26 02:52:00,
2013-03-25 21:02:00,38.0,12.0,-100.00,ENE,70,0.0,2.0,34,-99.99,,,0.00,,2013-03-26 03:02:00,
2013-03-25 21:12:00,36.0,11.0,-100.00,North,-999,0.0,0.0,36,-99.99,,,0.00,,2013-03-26 03:12:00,
2013-03-25 21:22:00,36.0,11.0,-100.00,North,-999,0.0,0.0,36,-99.99,,,0.00,,2013-03-26 03:22:00,
2013-03-25 21:33:00,35.0,12.0,-100.00,South,185,1.0,4.0,38,-99.99,,,0.00,,2013-03-26 03:33:00,
2013-03-25 21:42:00,35.0,12.0,-100.00,South,185,1.0,4.0,38,-99.99,,,0.00,,2013-03-26 03:42:00,
2013-03-25 21:52:00,32.0,11.0,-100.00,North,-999,0.0,0.0,41,-99.99,,,0.00,,2013-03-26 03:52:00,
2013-03-25 22:03:00,32.0,11.0,-100.00,North,-999,0.0,0.0,41,-99.99,,,0.00,,2013-03-26 04:03:00,
2013-03-25 22:12:00,31.0,12.0,-100.00,South,180,4.0,5.0,44,-99.99,,,0.00,,2013-03-26 04:12:00,
2013-03-25 22:23:00,31.0,12.0,-100.00,South,180,4.0,5.0,44,-99.99,,,0.00,,2013-03-26 04:23:00,
2013-03-25 22:32:00,31.0,12.0,-100.00,SSE,160,0.0,1.0,46,-99.99,,,0.00,,2013-03-26 04:32:00,
2013-03-25 22:43:00,31.0,12.0,-100.00,SSE,160,0.0,1.0,46,-99.99,,,0.00,,2013-03-26 04:43:00,
2013-03-25 22:52:00,28.0,13.0,-100.00,North,-999,0.0,0.0,51,-99.99,,,0.00,,2013-03-26 04:52:00,
2013-03-25 23:01:00,27.0,14.0,-100.00,South,175,2.0,3.0,56,-99.99,,,0.00,,2013-03-26 05:01:00,
2013-03-25 23:02:00,28.0,13.0,-100.00,North,-999,0.0,0.0,51,-99.99,,,0.00,,2013-03-26 05:02:00,
2013-03-25 23:12:00,27.0,13.0,-100.00,North,-999,0.0,0.0,54,-99.99,,,0.00,,2013-03-26 05:12:00,
2013-03-25 23:22:00,27.0,13.0,-100.00,North,-999,0.0,0.0,54,-99.99,,,0.00,,2013-03-26 05:22:00,
2013-03-25 23:32:00,27.0,14.0,-100.00,South,175,2.0,3.0,56,-99.99,,,0.00,,2013-03-26 05:32:00,
2013-03-25 23:42:00,27.0,14.0,-100.00,South,175,2.0,3.0,56,-99.99,,,0.00,,2013-03-26 05:42:00,
2013-03-25 23:52:00,27.0,14.0,-100.00,South,175,2.0,3.0,56,-99.99,,,0.00,,2013-03-26 05:52:00,